createdAt,value
2018-01-12T15:04:37.349Z,12.00
2018-01-12T15:07:46.609Z,14.70
2018-01-12T15:08:46.544Z,18.00
2018-01-12T15:09:46.539Z,18.00
2018-01-12T15:10:46.485Z,18.30
2018-01-12T15:11:46.442Z,19.20
2018-01-12T15:12:46.418Z,18.60
2018-01-12T15:13:46.379Z,19.30
2018-01-12T15:14:46.340Z,18.90
2018-01-12T15:15:46.317Z,18.50
2018-01-12T15:16:46.276Z,18.70
2018-01-12T15:17:46.249Z,19.80
2018-01-12T15:18:46.210Z,17.40
2018-01-12T15:19:46.183Z,17.70
2018-01-12T15:20:46.148Z,18.70
2018-01-12T15:21:46.122Z,19.50
2018-01-12T16:01:29.933Z,104.70
2018-01-12T16:02:30.018Z,120.90
2018-01-12T16:03:29.809Z,130.10
2018-01-12T16:04:29.786Z,136.40
2018-01-12T16:05:29.781Z,142.90
2018-01-12T16:06:30.210Z,158.20
2018-01-12T16:07:29.660Z,172.70
2018-01-12T16:08:29.632Z,178.20
2018-01-12T16:09:29.611Z,177.50
2018-01-12T16:10:29.559Z,191.60
2018-01-12T16:11:29.536Z,190.70
2018-01-12T16:12:29.507Z,190.40
2018-01-12T16:13:29.467Z,192.80
2018-01-12T16:14:29.411Z,205.20
2018-01-12T16:15:29.406Z,203.90
2018-01-12T16:16:29.385Z,209.60
2018-01-12T16:17:29.321Z,207.70
2018-01-12T16:18:29.278Z,218.60
2018-01-12T16:19:29.248Z,214.30
2018-01-12T16:20:29.207Z,209.50
2018-01-12T16:21:29.167Z,203.10
2018-01-12T16:22:29.179Z,205.30
2018-01-12T16:23:29.102Z,205.10
2018-01-12T16:24:29.096Z,208.60
2018-01-12T16:25:29.038Z,205.80
2018-01-12T16:26:29.005Z,203.30
2018-01-12T16:27:29.015Z,204.70
2018-01-12T16:28:28.946Z,200.80
2018-01-12T16:29:28.873Z,215.00
2018-01-12T16:30:28.858Z,200.20
2018-01-12T16:31:28.816Z,208.10
2018-01-12T16:32:28.779Z,212.30
2018-01-12T16:33:28.731Z,227.10
2018-01-12T16:34:28.693Z,209.40
2018-01-12T16:35:28.662Z,213.20
2018-01-12T16:36:28.628Z,201.70
2018-01-12T16:37:28.577Z,218.40
2018-01-12T16:38:28.578Z,212.10
2018-01-12T16:39:28.505Z,209.50
2018-01-12T16:40:28.565Z,215.20
2018-01-12T16:41:28.431Z,213.10
2018-01-12T16:42:28.444Z,202.70
2018-01-12T16:43:28.368Z,196.30
2018-01-12T16:44:28.342Z,205.00
2018-01-12T16:45:28.294Z,210.10
2018-01-12T16:46:28.254Z,212.20
2018-01-12T16:47:28.223Z,219.80
2018-01-12T16:48:28.173Z,209.50
2018-01-12T16:49:28.142Z,211.20
2018-01-12T16:50:28.105Z,207.90
2018-01-12T16:51:38.366Z,214.60
2018-01-12T16:52:28.022Z,207.60
2018-01-12T16:53:27.990Z,207.60
2018-01-12T16:54:27.990Z,198.50
2018-01-12T16:55:27.916Z,192.80
2018-01-12T16:56:27.881Z,202.00
2018-01-12T16:57:27.845Z,198.50
2018-01-12T16:58:27.857Z,206.60
2018-01-12T16:59:27.785Z,199.80
2018-01-12T17:00:27.728Z,215.90
2018-01-12T17:01:27.714Z,210.00
2018-01-12T17:02:27.679Z,204.30
2018-01-12T17:03:27.619Z,200.20
2018-01-12T17:04:27.593Z,204.70
2018-01-12T17:05:27.578Z,203.60
2018-01-12T17:06:27.526Z,198.00
2018-01-12T17:07:27.476Z,202.90
2018-01-12T17:08:27.434Z,206.20
2018-01-12T17:09:27.388Z,193.10
2018-01-12T17:10:27.395Z,217.00
2018-01-12T17:11:27.340Z,205.10
2018-01-12T17:12:27.275Z,205.80
2018-01-12T17:13:27.255Z,214.10
2018-01-12T17:14:27.274Z,200.90
2018-01-12T17:15:38.086Z,200.40
2018-01-12T17:16:27.795Z,206.80
2018-01-12T17:17:27.093Z,204.90
2018-01-12T17:18:27.065Z,213.20
2018-01-12T17:19:28.130Z,204.80
2018-01-12T17:20:27.925Z,200.10
2018-01-12T17:21:27.376Z,195.80
2018-01-12T17:22:26.887Z,199.60
2018-01-12T17:23:26.871Z,196.30
2018-01-12T17:24:26.839Z,198.10
2018-01-12T17:25:26.786Z,200.60
2018-01-12T17:26:26.790Z,208.20
2018-01-12T17:27:26.727Z,197.80
2018-01-12T17:28:26.696Z,215.50
2018-01-12T17:29:26.677Z,205.10
2018-01-12T17:30:26.579Z,198.50
2018-01-12T17:31:26.605Z,190.60
2018-01-12T17:32:26.527Z,210.00
2018-01-12T17:33:26.492Z,207.10
2018-01-12T17:34:26.463Z,204.30
2018-01-12T17:35:26.416Z,209.60
2018-01-12T17:36:26.385Z,208.30
2018-01-12T17:37:26.337Z,198.00
2018-01-12T17:38:26.299Z,197.20
2018-01-12T17:39:26.254Z,220.70
2018-01-12T17:40:26.223Z,206.10
2018-01-12T17:41:26.171Z,211.50
2018-01-12T17:42:26.214Z,213.20
2018-01-12T17:43:26.122Z,196.70
2018-01-12T17:44:26.072Z,205.10
2018-01-12T17:45:26.032Z,197.70
2018-01-12T17:46:25.978Z,194.90
2018-01-12T17:47:25.967Z,197.10
2018-01-12T17:48:25.905Z,203.20
2018-01-12T17:49:25.955Z,214.30
2018-01-12T17:50:25.823Z,207.60
2018-01-12T17:51:25.861Z,202.60
2018-01-12T17:52:25.753Z,200.10
2018-01-12T17:53:25.735Z,209.00
2018-01-12T17:54:25.663Z,205.20
2018-01-12T17:55:25.668Z,200.90
2018-01-12T17:56:25.617Z,201.70
2018-01-12T17:57:25.568Z,210.30
2018-01-12T17:58:25.551Z,189.90
2018-01-12T17:59:25.512Z,197.60
2018-01-12T18:00:25.467Z,204.70
2018-01-12T18:01:25.446Z,200.20
2018-01-12T18:02:25.397Z,199.50
2018-01-12T18:03:25.393Z,200.40
2018-01-12T18:04:25.301Z,199.10
2018-01-12T18:05:25.283Z,190.50
2018-01-12T18:06:25.234Z,193.40
2018-01-12T18:07:25.213Z,194.20
2018-01-12T18:08:25.160Z,193.80
2018-01-12T18:09:25.104Z,188.30
2018-01-12T18:10:25.113Z,194.80
2018-01-12T18:11:25.028Z,191.70
2018-01-12T18:12:25.015Z,186.90
2018-01-12T18:13:24.976Z,185.90
2018-01-12T18:14:24.948Z,180.10
2018-01-12T18:15:24.898Z,184.20
2018-01-12T18:16:24.848Z,181.70
2018-01-12T18:17:24.816Z,176.00
2018-01-12T18:18:24.792Z,182.30
2018-01-12T18:19:24.758Z,187.10
2018-01-12T18:20:24.720Z,185.20
2018-01-12T18:21:24.675Z,193.20
2018-01-12T18:22:24.616Z,190.60
2018-01-12T18:23:24.581Z,186.20
2018-01-12T18:24:24.548Z,189.10
2018-01-12T18:25:24.534Z,179.50
2018-01-12T18:26:24.466Z,194.70
2018-01-12T18:27:24.454Z,185.40
2018-01-12T18:28:24.386Z,189.70
2018-01-12T18:29:24.375Z,191.20
2018-01-12T18:30:24.345Z,198.20
2018-01-12T18:31:24.269Z,197.10
2018-01-12T18:32:24.232Z,190.40
2018-01-12T18:33:24.205Z,191.20
2018-01-12T18:34:24.146Z,183.10
2018-01-12T18:35:24.101Z,190.90
2018-01-12T18:36:24.089Z,187.60
2018-01-12T18:37:24.058Z,198.30
2018-01-12T18:38:24.075Z,193.90
2018-01-12T18:39:23.964Z,193.20
2018-01-12T18:40:23.937Z,193.10
2018-01-12T18:41:23.912Z,188.40
2018-01-12T18:42:23.870Z,187.00
2018-01-12T18:43:23.834Z,188.40
2018-01-12T18:44:23.779Z,186.50
2018-01-12T18:45:23.752Z,182.50
2018-01-12T18:46:23.721Z,180.70
2018-01-12T18:47:23.660Z,182.00
2018-01-12T18:48:23.639Z,176.10
2018-01-12T18:49:23.594Z,193.20
2018-01-12T18:50:34.549Z,174.90
2018-01-12T18:51:24.349Z,182.50
2018-01-12T18:52:24.473Z,184.90
2018-01-12T18:53:23.854Z,184.20
2018-01-12T18:54:23.408Z,188.20
2018-01-12T18:55:23.383Z,187.20
2018-01-12T18:56:23.403Z,189.40
2018-01-12T18:57:24.086Z,191.30
2018-01-12T18:58:23.245Z,198.50
2018-01-12T18:59:23.213Z,183.60
2018-01-12T19:00:23.153Z,192.80
2018-01-12T19:01:23.116Z,184.90
2018-01-12T19:02:23.092Z,178.10
2018-01-12T19:03:23.060Z,182.60
2018-01-12T19:04:23.074Z,182.90
2018-01-12T19:05:22.979Z,192.90
2018-01-12T19:06:22.950Z,182.90
2018-01-12T19:07:22.888Z,190.10
2018-01-12T19:08:22.915Z,192.60
2018-01-12T19:09:22.830Z,181.50
2018-01-12T19:10:22.796Z,184.80
2018-01-12T19:11:22.751Z,182.40
2018-01-12T19:12:22.703Z,182.90
2018-01-12T19:13:22.674Z,187.40
2018-01-12T19:14:22.676Z,185.50
2018-01-12T19:15:22.611Z,221.00
2018-01-12T19:16:22.553Z,197.70
2018-01-12T19:17:22.506Z,191.70
2018-01-12T19:18:22.467Z,199.30
2018-01-12T19:19:22.469Z,200.20
2018-01-12T19:20:22.463Z,187.30
2018-01-12T19:21:22.381Z,196.30
2018-01-12T19:22:22.325Z,184.20
2018-01-12T19:23:22.273Z,184.30
2018-01-12T19:24:22.266Z,186.50
2018-01-12T19:25:22.217Z,181.10
2018-01-12T19:26:22.157Z,183.70
2018-01-12T19:27:22.129Z,182.40
2018-01-12T19:28:22.122Z,181.00
2018-01-12T19:29:22.064Z,179.10
2018-01-12T19:30:22.043Z,184.90
2018-01-12T19:31:22.050Z,186.50
2018-01-12T19:32:21.948Z,181.10
2018-01-12T19:33:21.943Z,177.30
2018-01-12T19:34:21.889Z,178.60
2018-01-12T19:35:21.880Z,174.40
2018-01-12T19:36:21.776Z,187.00
2018-01-12T19:37:21.763Z,183.40
2018-01-12T19:38:31.881Z,182.40
2018-01-12T19:39:21.689Z,182.70
2018-01-12T19:40:21.666Z,174.40
2018-01-12T19:41:21.603Z,176.60
2018-01-12T19:42:21.593Z,177.10
2018-01-12T19:43:21.783Z,186.30
2018-01-12T19:44:21.902Z,182.30
2018-01-12T19:45:21.425Z,195.30
2018-01-12T19:46:21.442Z,186.60
2018-01-12T19:47:21.409Z,179.40
2018-01-12T19:48:21.487Z,173.90
2018-01-12T19:49:21.292Z,196.10
2018-01-12T19:50:21.266Z,186.40
2018-01-12T19:51:21.244Z,190.90
2018-01-12T19:52:21.201Z,196.90
2018-01-12T19:53:21.180Z,185.70
2018-01-12T19:54:21.112Z,175.10
2018-01-12T19:55:21.080Z,177.00
2018-01-12T19:56:21.020Z,180.40
2018-01-12T19:57:21.001Z,173.40
2018-01-12T19:58:20.941Z,177.50
2018-01-12T19:59:20.904Z,178.80
2018-01-12T20:00:21.609Z,171.80
2018-01-12T20:01:20.877Z,168.50
2018-01-12T20:02:20.877Z,177.30
2018-01-12T20:03:20.793Z,183.20
2018-01-12T20:04:20.773Z,183.10
2018-01-12T20:05:20.726Z,179.30
2018-01-12T20:06:20.650Z,168.80
2018-01-12T20:07:20.673Z,179.50
2018-01-12T20:08:31.509Z,180.90
2018-01-12T20:09:20.509Z,169.70
2018-01-12T20:10:20.589Z,166.70
2018-01-12T20:11:20.484Z,169.60
2018-01-12T20:12:20.462Z,165.00
2018-01-12T20:13:20.399Z,167.40
2018-01-12T20:14:20.411Z,173.50
2018-01-12T20:15:20.273Z,165.50
2018-01-12T20:16:20.269Z,168.70
2018-01-12T20:17:20.217Z,168.90
2018-01-12T20:18:20.227Z,172.80
2018-01-12T20:19:20.175Z,174.20
2018-01-12T20:20:20.136Z,174.00
2018-01-12T20:21:20.058Z,173.40
2018-01-12T20:22:20.038Z,171.20
2018-01-12T20:23:19.990Z,166.60
2018-01-12T20:24:20.011Z,164.60
2018-01-12T20:25:19.899Z,175.40
2018-01-12T20:26:19.877Z,174.60
2018-01-12T20:27:19.826Z,171.50
2018-01-12T20:28:19.838Z,181.80
2018-01-12T20:29:19.764Z,190.60
2018-01-12T20:30:19.771Z,168.40
2018-01-12T20:31:19.698Z,181.30
2018-01-12T20:32:19.639Z,175.10
2018-01-12T20:33:19.597Z,163.10
2018-01-12T20:34:19.567Z,165.60
2018-01-12T20:35:19.562Z,177.50
2018-01-12T20:36:20.144Z,160.80
2018-01-12T20:37:19.481Z,170.60
2018-01-12T20:38:19.437Z,175.20
2018-01-12T20:39:19.369Z,168.60
2018-01-12T20:40:19.341Z,170.80
2018-01-12T20:41:19.301Z,176.50
2018-01-12T20:42:19.298Z,167.80
2018-01-12T20:43:19.246Z,178.50
2018-01-12T20:44:19.182Z,179.50
2018-01-12T20:45:19.203Z,172.40
2018-01-12T20:46:19.107Z,169.80
2018-01-12T20:47:19.075Z,170.80
2018-01-12T20:48:19.041Z,166.20
2018-01-12T20:49:18.991Z,171.50
2018-01-12T20:50:19.085Z,166.10
2018-01-12T20:51:18.995Z,173.00
2018-01-12T20:52:18.880Z,168.20
2018-01-12T20:53:18.888Z,170.00
2018-01-12T20:54:18.819Z,168.80
2018-01-12T20:55:18.819Z,164.70
2018-01-12T20:56:18.749Z,170.70
2018-01-12T20:57:18.682Z,169.80
2018-01-12T20:58:18.652Z,168.60
2018-01-12T20:59:18.622Z,164.60
2018-01-12T21:00:18.865Z,166.90
2018-01-12T21:01:18.538Z,167.50
2018-01-12T21:02:18.485Z,162.10
2018-01-12T21:03:18.594Z,168.90
2018-01-12T21:04:18.424Z,160.60
2018-01-12T21:05:18.379Z,170.70
2018-01-12T21:06:18.356Z,168.60
2018-01-12T21:07:18.331Z,159.50
2018-01-12T21:08:18.334Z,164.20
2018-01-12T21:09:18.209Z,161.30
2018-01-12T21:10:18.178Z,164.50
2018-01-12T21:11:18.161Z,165.60
2018-01-12T21:12:18.248Z,167.20
2018-01-12T21:13:18.067Z,167.00
2018-01-12T21:14:18.034Z,168.80
2018-01-12T21:15:17.989Z,163.20
2018-01-12T21:16:17.963Z,169.40
2018-01-12T21:17:17.978Z,167.50
2018-01-12T21:18:17.924Z,164.80
2018-01-12T21:19:17.852Z,161.60
2018-01-12T21:20:17.834Z,173.30
2018-01-12T21:21:17.757Z,176.10
2018-01-12T21:22:17.784Z,172.10
2018-01-12T21:23:17.690Z,168.00
2018-01-12T21:24:17.659Z,181.60
2018-01-12T21:25:17.703Z,169.30
2018-01-12T21:26:17.573Z,166.80
2018-01-12T21:27:17.533Z,174.20
2018-01-12T21:28:17.483Z,174.80
2018-01-12T21:29:17.503Z,177.10
2018-01-12T21:30:17.413Z,180.10
2018-01-12T21:31:17.365Z,167.00
2018-01-12T21:32:17.347Z,174.30
2018-01-12T21:33:17.311Z,168.10
2018-01-12T21:34:17.293Z,167.70
2018-01-12T21:35:17.232Z,167.80
2018-01-12T21:36:17.204Z,170.10
2018-01-12T21:37:17.152Z,173.20
2018-01-12T21:38:17.115Z,178.00
2018-01-12T21:39:17.112Z,166.90
2018-01-12T21:40:17.204Z,175.50
2018-01-12T21:41:16.992Z,177.40
2018-01-12T21:42:16.994Z,171.70
2018-01-12T21:43:16.923Z,175.40
2018-01-12T21:44:16.892Z,178.60
2018-01-12T21:45:16.847Z,170.10
2018-01-12T21:46:16.799Z,180.00
2018-01-12T21:47:16.815Z,183.60
2018-01-12T21:48:16.764Z,173.30
2018-01-12T21:49:16.710Z,168.10
2018-01-12T21:50:16.675Z,173.80
2018-01-12T21:51:16.628Z,165.50
2018-01-12T21:52:16.584Z,179.00
2018-01-12T21:53:16.596Z,174.10
2018-01-12T21:54:16.515Z,177.20
2018-01-12T21:55:16.460Z,165.80
2018-01-12T21:56:16.461Z,169.50
2018-01-12T21:57:16.402Z,176.10
2018-01-12T21:58:16.331Z,166.20
2018-01-12T21:59:16.305Z,169.30
2018-01-12T22:00:28.213Z,181.70
2018-01-12T22:01:16.263Z,171.40
2018-01-12T22:02:16.196Z,177.60
2018-01-12T22:03:16.379Z,170.70
2018-01-12T22:04:16.128Z,169.80
2018-01-12T22:05:16.267Z,180.90
2018-01-12T22:06:16.042Z,172.50
2018-01-12T22:07:15.996Z,164.40
2018-01-12T22:08:15.960Z,159.10
2018-01-12T22:09:15.919Z,170.60
2018-01-12T22:10:16.013Z,158.30
2018-01-12T22:11:15.862Z,174.80
2018-01-12T22:12:15.804Z,164.20
2018-01-12T22:13:15.765Z,172.40
2018-01-12T22:14:15.740Z,170.20
2018-01-12T22:15:15.860Z,163.50
2018-01-12T22:16:15.647Z,170.30
2018-01-12T22:17:15.627Z,169.50
2018-01-12T22:18:15.614Z,174.20
2018-01-12T22:19:15.529Z,167.70
2018-01-12T22:20:15.506Z,172.70
2018-01-12T22:21:15.495Z,171.90
2018-01-12T22:22:15.448Z,168.80
2018-01-12T22:23:15.402Z,162.30
2018-01-12T22:24:15.403Z,169.80
2018-01-12T22:25:15.390Z,162.90
2018-01-12T22:26:15.269Z,165.10
2018-01-12T22:27:15.229Z,171.70
2018-01-12T22:28:15.271Z,170.20
2018-01-12T22:29:15.151Z,169.50
2018-01-12T22:30:15.124Z,167.50
2018-01-12T22:31:15.073Z,171.50
2018-01-12T22:32:15.031Z,159.30
2018-01-12T22:33:15.000Z,166.10
2018-01-12T22:34:14.950Z,163.00
2018-01-12T22:35:15.040Z,166.80
2018-01-12T22:36:14.899Z,159.50
2018-01-12T22:37:14.878Z,167.40
2018-01-12T22:38:14.851Z,167.20
2018-01-12T22:39:14.790Z,168.90
2018-01-12T22:40:14.818Z,166.20
2018-01-12T22:41:14.696Z,161.20
2018-01-12T22:42:14.663Z,165.70
2018-01-12T22:43:14.642Z,160.80
2018-01-12T22:44:14.580Z,169.10
2018-01-12T22:45:14.537Z,155.20
2018-01-12T22:46:14.487Z,159.40
2018-01-12T22:47:14.459Z,157.20
2018-01-12T22:48:14.441Z,159.30
2018-01-12T22:49:14.391Z,164.50
2018-01-12T22:50:14.476Z,159.70
2018-01-12T22:51:14.513Z,150.90
2018-01-12T22:52:14.297Z,156.70
2018-01-12T22:53:14.254Z,162.40
2018-01-12T22:54:14.243Z,153.90
2018-01-12T22:55:14.162Z,156.20
2018-01-12T22:56:14.118Z,161.10
2018-01-12T22:57:14.246Z,167.70
2018-01-12T22:58:14.049Z,158.40
2018-01-12T22:59:14.002Z,168.00
2018-01-12T23:00:13.950Z,162.50
2018-01-12T23:01:13.961Z,157.70
2018-01-12T23:02:13.999Z,165.20
2018-01-12T23:03:13.960Z,171.40
2018-01-12T23:04:13.832Z,161.10
2018-01-12T23:05:13.786Z,160.00
2018-01-12T23:06:13.853Z,162.50
2018-01-12T23:07:13.737Z,167.50
2018-01-12T23:08:13.668Z,159.10
2018-01-12T23:09:13.717Z,157.80
2018-01-12T23:10:13.593Z,163.10
2018-01-12T23:11:24.757Z,175.20
2018-01-12T23:12:14.077Z,158.80
2018-01-12T23:13:13.696Z,161.20
2018-01-12T23:14:13.429Z,149.40
2018-01-12T23:15:13.856Z,158.60
2018-01-12T23:16:13.539Z,161.30
2018-01-12T23:17:13.513Z,154.00
2018-01-12T23:18:13.287Z,154.10
2018-01-12T23:19:13.533Z,167.80
2018-01-12T23:20:13.235Z,175.40
2018-01-12T23:21:13.289Z,182.50
2018-01-12T23:22:13.118Z,174.30
2018-01-12T23:23:13.067Z,162.50
2018-01-12T23:24:13.046Z,173.20
2018-01-12T23:25:13.328Z,162.10
2018-01-12T23:26:12.960Z,159.70
2018-01-12T23:27:13.062Z,164.70
2018-01-12T23:28:12.884Z,156.40
2018-01-12T23:29:12.940Z,153.20
2018-01-12T23:30:12.824Z,150.40
2018-01-12T23:31:13.264Z,150.60
2018-01-12T23:32:12.760Z,156.20
2018-01-12T23:33:12.704Z,153.00
2018-01-12T23:34:12.644Z,154.90
2018-01-12T23:35:12.774Z,155.70
2018-01-12T23:36:12.582Z,159.10
2018-01-12T23:37:12.898Z,156.90
2018-01-12T23:38:12.496Z,151.30
2018-01-12T23:39:12.468Z,146.60
2018-01-12T23:40:12.416Z,155.40
2018-01-12T23:41:12.397Z,159.30
2018-01-12T23:42:12.358Z,156.70
2018-01-12T23:43:12.318Z,163.60
2018-01-12T23:44:12.273Z,162.20
2018-01-12T23:45:13.678Z,160.40
2018-01-12T23:46:12.203Z,174.10
2018-01-12T23:47:12.205Z,160.20
2018-01-12T23:48:12.121Z,158.10
2018-01-12T23:49:12.103Z,147.30
2018-01-12T23:50:12.640Z,159.50
2018-01-12T23:51:13.167Z,156.00
2018-01-12T23:52:11.971Z,171.80
2018-01-12T23:53:11.931Z,169.50
2018-01-12T23:54:11.882Z,160.60
2018-01-12T23:55:11.841Z,159.70
2018-01-12T23:56:11.801Z,161.10
2018-01-12T23:57:11.771Z,154.70
2018-01-12T23:58:11.768Z,160.30
2018-01-12T23:59:22.656Z,152.40
